Airfield :
LOGIN :

Register | Disclaimer

   EN    FR    IT 

 










Legend :    VFR   Marginal VFR   IFR   Intensive IFR   Very Intensive IFR
Visi :
Ceiling :
>= 8 km
>= 3000ft
5 to 8 km
1000 to 3000 ft
1500m to 5 km
500 to 1000 ft
800 to 1500m
200 to 500 ft
< 800m
< 200 ft
Symbols :   Thunderstorms  Fog  Heavy snow  Heavy precipitations  Wind > 20 kt
SIGMETs :     Misc.  Thunderstorms  Icing  Turbulence  Mountain Waves  Volcanic Ashes






- Airport Elevation : 13 ft
- IATA code : CEQ


LFMD - Cannes Mandelieu

CURRENT METAR :
  • 101030Z AUTO VRB03KT 9000 NSC 14/02 Q1017 NOSIG

EXPIRED METARs :
  • 101000Z AUTO VRB03KT CAVOK 13/01 Q1017 NOSIG
  • 100930Z AUTO 33003KT 290V020 CAVOK 11/00 Q1017 NOSIG
  • 100900Z AUTO 35004KT 300V020 CAVOK 09/00 Q1016 NOSIG
  • 100830Z AUTO 36005KT 300V040 CAVOK 07/00 Q1016 NOSIG
  • 100800Z AUTO 35004KT 320V050 CAVOK 06/M01 Q1016 NOSIG

TAF TAF LFMD
Valid from the 10 at 09:00 until the 11 at 09:00 UTC


100800Z 1009/1109 VRB02KT CAVOK
TEMPO 1011/1018 28010KT
ATIS : +33 4 93 48 73 23



MET'MAP, your aeronautical weather chart ! - Copyright ORBIFLY December 2007 - Disclaimer

ORBIFLY MET'MAP TEAM :

Programming & Development : Alexandra Zaïnal
Concept & original design : Baudouin d'Aumeries
Assistance for programming : Marc-Olivier Méhu
Technical & hardware support : Manuel Goepfert

Contact : metmap@orbifly.com




SOURCES & CREDITS :

   NOAA